»·PEaware :: N123KT KFUL-KSBP

N123KT :: KFUL-KSBP

FLIGHT INFORMATION

Flight Status: Arrived
Operator: Privately registered:
United States
More flights under this callsign
Pilot: Anonymous 475 (475)
Aircraft: Unknown
(LEG2)
More flights by this aircraft type
Origin: KFUL Fullerton Mun
United States
Destination: KSBP San Luis Co Regl
United States
More flights between these airports :: More routes between these airports
Route: +KEMT
File this flight plan on PilotEdge
Remarks:
Altitude:
(Current/Filed)
2,500ft
Speed:
(Current/Filed)
0kts
Departed: 07-Sep-18 01:07 PM
Arrived: 07-Sep-18 01:53 PM
Distance/Time
Traveled:
155nm/0:45
Distance/Time
To Go:
Arrived

Flight Plot

Page will automatically refresh every two minutes.

Flight plan parsing failed; only flown route is shown


Map Options




Map Legend


Flown Route
Filed Route
Departure Airport
Arrival Airport
Navaid (VOR, NDB)
Fix

Horizontal Profiles

Position Reports

Time Latitude Longitude Heading Altitude Ground
Speed
07-Sep-18 13:04 33.870825 -117.980177 79 99ft 0kts
07-Sep-18 13:05 33.870825 -117.980177 79 99ft 0kts
07-Sep-18 13:06 33.871249 -117.980143 352 99ft 6kts
07-Sep-18 13:07 33.872358 -117.975889 79 99ft 16kts
07-Sep-18 13:08 33.872550 -117.974961 54 99ft 0kts
07-Sep-18 13:09 33.870552 -117.987632 246 442ft 95kts
07-Sep-18 13:10 33.889846 -118.006975 0 1806ft 135kts
07-Sep-18 13:11 33.931522 -117.997985 1 2278ft 152kts
07-Sep-18 13:12 33.975156 -118.006449 348 3423ft 174kts
07-Sep-18 13:13 34.026037 -118.019461 348 3482ft 191kts
07-Sep-18 13:14 34.077647 -118.034690 328 3485ft 196kts
07-Sep-18 13:15 34.112717 -118.086611 294 3481ft 199kts
07-Sep-18 13:16 34.136473 -118.144744 298 4695ft 198kts
07-Sep-18 13:17 34.164313 -118.206360 298 6706ft 215kts
07-Sep-18 13:18 34.194065 -118.271680 299 8419ft 230kts
07-Sep-18 13:19 34.226145 -118.342124 299 8502ft 249kts
07-Sep-18 13:20 34.259792 -118.416275 298 8517ft 250kts
07-Sep-18 13:21 34.292944 -118.489515 298 8504ft 247kts
07-Sep-18 13:22 34.325814 -118.562246 298 8493ft 246kts
07-Sep-18 13:23 34.358534 -118.634791 298 8515ft 243kts
07-Sep-18 13:24 34.390765 -118.706402 298 8539ft 240kts
07-Sep-18 13:25 34.422574 -118.777225 298 8558ft 238kts
07-Sep-18 13:26 34.454146 -118.847660 298 8578ft 242kts
07-Sep-18 13:27 34.486621 -118.920250 298 8580ft 242kts
07-Sep-18 13:28 34.518436 -118.991523 298 8585ft 240kts
07-Sep-18 13:29 34.550143 -119.062700 298 8586ft 239kts
07-Sep-18 13:30 34.581723 -119.133737 298 8566ft 239kts
07-Sep-18 13:31 34.613183 -119.204654 298 8566ft 238kts
07-Sep-18 13:32 34.644451 -119.275283 298 8576ft 238kts
07-Sep-18 13:33 34.675732 -119.346080 298 8568ft 242kts
07-Sep-18 13:34 34.707795 -119.418801 298 8558ft 243kts
07-Sep-18 13:35 34.739556 -119.490996 298 8553ft 244kts
07-Sep-18 13:36 34.771798 -119.564439 298 8502ft 244kts
07-Sep-18 13:37 34.803509 -119.636832 298 8500ft 241kts
07-Sep-18 13:38 34.834858 -119.708547 298 8501ft 240kts
07-Sep-18 13:39 34.866233 -119.780477 298 8490ft 240kts
07-Sep-18 13:40 34.897573 -119.852477 297 8494ft 243kts
07-Sep-18 13:41 34.929336 -119.925599 297 8486ft 242kts
07-Sep-18 13:42 34.960657 -119.997865 297 8490ft 243kts
07-Sep-18 13:43 34.992472 -120.071398 298 8013ft 243kts
07-Sep-18 13:44 35.022064 -120.139786 298 6000ft 215kts
07-Sep-18 13:45 35.050378 -120.205579 298 5007ft 218kts
07-Sep-18 13:46 35.078366 -120.270726 298 5003ft 217kts
07-Sep-18 13:47 35.106464 -120.336215 298 5004ft 221kts
07-Sep-18 13:48 35.135121 -120.403133 298 4877ft 220kts
07-Sep-18 13:49 35.161201 -120.464111 298 4257ft 181kts
07-Sep-18 13:50 35.178714 -120.510656 287 3402ft 131kts
07-Sep-18 13:51 35.189050 -120.553332 297 2111ft 117kts
07-Sep-18 13:52 35.205827 -120.585872 303 1440ft 104kts
07-Sep-18 13:53 35.220826 -120.612019 302 746ft 85kts
07-Sep-18 13:54 35.233525 -120.634346 301 232ft 73kts
07-Sep-18 13:55 35.237514 -120.639998 19 215ft 0kts
07-Sep-18 13:56 35.238427 -120.639656 334 215ft 4kts

Navigation Log

Ident Type
Flight plan parsing failed, navigation log unavailable